Time;durP1;ratioP1;P1;durP2;ratioP2;P2;SDS_P1;SDS_P2;PMS_P1;PMS_P2;Temp;Humidity;BMP_temperature;BMP_pressure;BME280_temperature;BME280_humidity;BME280_pressure;Samples;Min_cycle;Max_cycle;Signal;HPM_P1;HPM_P2
2023/05/10 00:00:46;;;;;;;4.85;2.85;;;;;;;10.20;74.56;97892.66;2608327;28;20076;-81
2023/05/10 00:02:02;;;;;;;4.13;2.53;;;;;;;9.85;77.90;97896.47;2608856;28;20049;-81
2023/05/10 00:03:17;;;;;;;6.05;2.70;;;;;;;9.81;78.61;97891.38;2609029;28;20071;-80
2023/05/10 00:04:33;;;;;;;5.47;2.95;;;;;;;9.67;80.58;97890.09;2608781;28;20056;-80
2023/05/10 00:05:49;;;;;;;3.72;2.63;;;;;;;9.84;79.46;97894.72;2608936;28;20036;-80
2023/05/10 00:07:04;;;;;;;4.30;2.90;;;;;;;9.97;77.98;97895.19;2609370;28;20563;-80
2023/05/10 00:08:20;;;;;;;4.78;3.00;;;;;;;9.90;78.65;97891.06;2608723;28;20049;-80
2023/05/10 00:09:35;;;;;;;5.20;3.10;;;;;;;9.91;77.97;97889.31;2608998;28;20048;-80
2023/05/10 00:10:52;;;;;;;6.20;3.28;;;;;;;10.03;76.24;97889.72;2608551;28;20053;-80
2023/05/10 00:12:08;;;;;;;7.32;3.17;;;;;;;10.07;77.81;97892.25;2608761;28;20084;-81
2023/05/10 00:13:23;;;;;;;4.72;3.17;;;;;;;9.97;76.88;97882.09;2608892;28;20053;-81
2023/05/10 00:14:39;;;;;;;3.95;2.75;;;;;;;9.70;79.94;97881.25;2608829;28;20079;-80
2023/05/10 00:15:55;;;;;;;6.53;2.60;;;;;;;9.74;79.78;97875.06;2608111;28;20049;-80
2023/05/10 00:17:10;;;;;;;4.05;3.10;;;;;;;9.81;79.85;97873.91;2608058;28;20053;-81
2023/05/10 00:18:26;;;;;;;5.38;3.13;;;;;;;9.86;78.33;97866.78;2608701;28;20611;-80
2023/05/10 00:19:41;;;;;;;7.40;3.15;;;;;;;9.79;79.52;97873.13;2608150;28;20060;-81
2023/05/10 00:20:57;;;;;;;4.47;3.13;;;;;;;9.61;81.01;97874.59;2608725;28;20048;-80
2023/05/10 00:22:12;;;;;;;5.10;3.20;;;;;;;9.55;82.41;97874.81;2608612;28;20049;-80
2023/05/10 00:23:28;;;;;;;4.35;3.13;;;;;;;9.97;78.95;97878.63;2608042;28;20134;-81
2023/05/10 00:24:44;;;;;;;4.75;3.15;;;;;;;10.13;76.80;97865.88;2608493;28;20049;-80
2023/05/10 00:25:59;;;;;;;5.60;3.75;;;;;;;9.89;78.54;97873.66;2608277;28;20072;-81
2023/05/10 00:27:15;;;;;;;6.47;3.95;;;;;;;10.08;77.45;97873.03;2607824;28;20144;-81
2023/05/10 00:28:30;;;;;;;8.43;4.07;;;;;;;9.83;78.53;97866.03;2608446;28;20484;-81
2023/05/10 00:29:46;;;;;;;5.00;3.65;;;;;;;9.78;79.98;97866.19;2608577;28;20041;-81
2023/05/10 00:31:02;;;;;;;6.65;4.43;;;;;;;10.11;76.73;97868.53;2608659;28;20049;-80
2023/05/10 00:32:17;;;;;;;7.57;4.20;;;;;;;9.83;79.22;97861.66;2607516;28;20041;-80
2023/05/10 00:33:33;;;;;;;6.50;3.75;;;;;;;9.92;78.50;97864.88;2607844;28;20574;-82
2023/05/10 00:34:49;;;;;;;7.05;3.70;;;;;;;9.74;80.41;97860.22;2608042;28;20056;-81
2023/05/10 00:36:07;;;;;;;5.45;3.42;;;;;;;10.06;77.47;97861.75;2608255;28;20450;-80
2023/05/10 00:37:22;;;;;;;6.63;3.53;;;;;;;10.06;77.66;97859.13;2608756;28;20557;-81
2023/05/10 00:38:38;;;;;;;5.22;3.65;;;;;;;10.14;77.76;97857.13;2608481;28;20260;-81
2023/05/10 00:39:53;;;;;;;5.13;3.50;;;;;;;9.97;78.59;97861.19;2608683;28;20059;-81
2023/05/10 00:41:09;;;;;;;5.07;3.40;;;;;;;10.18;76.74;97862.19;2608798;28;20398;-81
2023/05/10 00:42:25;;;;;;;7.22;3.53;;;;;;;10.14;76.77;97859.72;2608255;28;20496;-81
2023/05/10 00:43:40;;;;;;;6.15;3.47;;;;;;;10.11;76.53;97858.06;2608311;28;20048;-81
2023/05/10 00:44:56;;;;;;;5.47;3.30;;;;;;;9.47;82.73;97855.00;2608290;28;20481;-80
2023/05/10 00:46:14;;;;;;;5.63;3.08;;;;;;;9.13;88.10;97855.22;2608255;28;20137;-81
2023/05/10 00:47:29;;;;;;;4.50;3.38;;;;;;;9.29;86.13;97858.22;2608261;28;20057;-80
2023/05/10 00:48:45;;;;;;;7.03;3.90;;;;;;;9.66;83.28;97854.41;2608301;28;20079;-80
2023/05/10 00:50:01;;;;;;;7.47;3.40;;;;;;;9.65;83.12;97857.94;2604567;28;20393;-80
2023/05/10 00:51:17;;;;;;;4.78;3.45;;;;;;;9.78;81.44;97853.13;2608027;28;20569;-80
2023/05/10 00:52:32;;;;;;;4.72;3.30;;;;;;;9.81;80.66;97847.78;2607754;28;20135;-81
2023/05/10 00:53:49;;;;;;;5.60;3.42;;;;;;;9.65;82.04;97847.47;2606724;28;20751;-81
2023/05/10 00:55:06;;;;;;;3.92;3.15;;;;;;;8.97;89.65;97844.44;2608437;28;20492;-80
2023/05/10 00:56:23;;;;;;;5.80;3.13;;;;;;;9.13;88.77;97842.16;2608027;28;20048;-80
2023/05/10 00:57:39;;;;;;;4.82;3.22;;;;;;;9.49;86.20;97851.47;2607324;28;20148;-82
2023/05/10 00:58:56;;;;;;;5.55;3.50;;;;;;;9.38;87.04;97838.78;2608507;28;20329;-80
2023/05/10 01:00:12;;;;;;;6.38;3.30;;;;;;;9.35;87.01;97841.50;2608481;28;20480;-81
2023/05/10 01:01:28;;;;;;;3.92;2.60;;;;;;;9.28;87.13;97840.84;2608476;28;20493;-81
2023/05/10 01:02:45;;;;;;;4.97;3.17;;;;;;;9.53;85.09;97838.25;2608646;28;20067;-81
2023/05/10 01:04:01;;;;;;;5.22;3.47;;;;;;;9.40;87.00;97844.78;2608468;28;20100;-81
2023/05/10 01:05:17;;;;;;;4.80;3.50;;;;;;;9.41;87.34;97842.16;2608338;28;20061;-81
2023/05/10 01:06:33;;;;;;;4.97;3.00;;;;;;;9.64;83.91;97835.31;2608458;28;20118;-81
2023/05/10 01:07:48;;;;;;;5.57;2.92;;;;;;;9.80;82.55;97838.22;2608989;28;20044;-81
2023/05/10 01:09:04;;;;;;;6.47;3.45;;;;;;;9.43;86.24;97834.28;2610475;28;20052;-81
2023/05/10 01:10:19;;;;;;;5.13;3.08;;;;;;;9.53;84.19;97837.44;2610826;28;20049;-81
2023/05/10 01:11:37;;;;;;;4.97;3.28;;;;;;;9.28;87.40;97841.69;2610145;28;20044;-81
2023/05/10 01:12:53;;;;;;;5.13;3.20;;;;;;;9.60;84.81;97839.78;2610513;28;20516;-81
2023/05/10 01:14:09;;;;;;;4.82;3.08;;;;;;;9.64;83.96;97837.06;2610283;28;20493;-81
2023/05/10 01:15:25;;;;;;;6.65;3.05;;;;;;;9.71;83.08;97839.41;2610760;28;20131;-81
2023/05/10 01:16:43;;;;;;;5.78;3.22;;;;;;;9.66;83.29;97841.34;2610627;28;20080;-81
2023/05/10 01:18:00;;;;;;;5.13;3.28;;;;;;;9.69;82.96;97836.00;2610306;28;20045;-82
2023/05/10 01:19:30;;;;;;;7.78;3.20;;;;;;;9.53;84.08;97835.66;2610140;28;20052;-81
2023/05/10 01:20:51;;;;;;;6.00;3.35;;;;;;;9.29;85.93;97835.56;2610681;28;20182;-81
2023/05/10 01:22:28;;;;;;;4.82;3.20;;;;;;;9.46;84.30;97840.22;2610836;28;20049;-81
2023/05/10 01:24:04;;;;;;;5.47;3.33;;;;;;;9.23;86.96;97846.22;2609936;28;20045;-81
2023/05/10 01:25:30;;;;;;;3.88;3.05;;;;;;;9.06;89.15;97836.28;2610146;28;20179;-81
2023/05/10 01:27:09;;;;;;;5.05;3.08;;;;;;;9.04;90.18;97836.34;2610181;28;20148;-82
2023/05/10 01:28:49;;;;;;;4.82;3.17;;;;;;;9.25;85.80;97836.56;2610624;28;20053;-81
2023/05/10 01:30:35;;;;;;;7.07;2.85;;;;;;;9.03;89.93;97839.88;2610700;28;20500;-81
2023/05/10 01:31:53;;;;;;;4.43;2.97;;;;;;;9.27;87.00;97834.75;2610266;28;20102;-82
2023/05/10 01:33:22;;;;;;;6.30;3.50;;;;;;;9.27;85.65;97833.91;2610330;28;20094;-81
2023/05/10 01:34:54;;;;;;;5.93;3.28;;;;;;;9.16;87.41;97827.28;2610285;28;20073;-82
2023/05/10 01:36:19;;;;;;;5.60;3.22;;;;;;;8.88;90.68;97828.13;2610411;28;20079;-81
2023/05/10 01:37:52;;;;;;;4.88;3.20;;;;;;;8.92;92.16;97828.03;2610738;28;20057;-81
2023/05/10 01:39:21;;;;;;;5.53;3.20;;;;;;;9.01;90.66;97830.38;2610559;28;20143;-81
2023/05/10 01:40:57;;;;;;;4.55;3.10;;;;;;;8.96;91.00;97829.69;2610074;28;20041;-81
2023/05/10 01:42:23;;;;;;;4.32;3.35;;;;;;;9.25;89.23;97825.28;2609966;28;20059;-82
2023/05/10 01:43:57;;;;;;;4.93;3.50;;;;;;;9.15;89.75;97825.56;2610066;28;20136;-81
2023/05/10 01:45:25;;;;;;;6.22;3.13;;;;;;;9.13;89.20;97835.22;2610260;28;20159;-80
2023/05/10 01:46:41;;;;;;;4.50;3.42;;;;;;;9.21;88.28;97826.25;2610114;28;20416;-80
2023/05/10 01:48:08;;;;;;;5.20;3.30;;;;;;;9.16;88.83;97827.28;2610195;28;20053;-80
2023/05/10 01:49:28;;;;;;;6.90;3.33;;;;;;;9.26;87.76;97832.19;2609905;28;20208;-80
2023/05/10 01:50:46;;;;;;;6.10;3.42;;;;;;;9.12;88.56;97830.03;2610271;28;20515;-80
2023/05/10 01:52:10;;;;;;;6.25;3.50;;;;;;;9.21;87.92;97824.50;2610394;28;20136;-80
2023/05/10 01:53:27;;;;;;;4.90;3.10;;;;;;;9.19;88.38;97827.16;2610236;28;20056;-80
2023/05/10 01:54:55;;;;;;;5.90;3.50;;;;;;;8.98;89.55;97822.63;2610423;28;20049;-80
2023/05/10 01:56:13;;;;;;;5.47;3.38;;;;;;;8.98;90.08;97827.88;2609869;28;20099;-80
2023/05/10 01:57:34;;;;;;;4.82;3.20;;;;;;;8.88;90.33;97812.47;2609858;28;20057;-80
2023/05/10 01:58:52;;;;;;;4.10;3.00;;;;;;;8.96;90.56;97819.22;2609903;28;20480;-79
2023/05/10 02:00:10;;;;;;;4.93;3.20;;;;;;;9.11;90.14;97817.88;2609584;28;20515;-80
2023/05/10 02:01:27;;;;;;;4.25;3.05;;;;;;;9.18;88.78;97816.78;2610217;28;20052;-80
2023/05/10 02:02:45;;;;;;;4.15;3.00;;;;;;;8.87;91.26;97821.22;2606903;28;20983;-80
2023/05/10 02:04:02;;;;;;;4.22;2.88;;;;;;;8.96;90.26;97814.84;2609904;28;20075;-80
2023/05/10 02:05:21;;;;;;;4.68;3.10;;;;;;;9.20;88.92;97817.59;2609705;28;20041;-79
2023/05/10 02:06:39;;;;;;;5.25;3.03;;;;;;;9.16;88.90;97822.03;2609989;28;20048;-80
2023/05/10 02:07:56;;;;;;;6.53;3.30;;;;;;;9.08;89.27;97815.38;2610093;28;20204;-80
2023/05/10 02:09:14;;;;;;;4.47;3.28;;;;;;;9.13;89.12;97816.94;2609975;28;20056;-80
2023/05/10 02:10:30;;;;;;;6.55;2.85;;;;;;;9.08;89.64;97824.06;2609783;28;20052;-80
2023/05/10 02:11:48;;;;;;;4.32;2.80;;;;;;;8.96;90.86;97822.69;2609546;28;20495;-80
2023/05/10 02:13:06;;;;;;;4.30;2.97;;;;;;;9.02;90.56;97817.28;2609257;28;20466;-79
2023/05/10 02:14:24;;;;;;;4.43;3.30;;;;;;;8.95;91.45;97823.59;2609685;28;20055;-80
2023/05/10 02:15:41;;;;;;;4.85;3.13;;;;;;;8.86;90.80;97819.50;2608722;28;20077;-80
2023/05/10 02:16:58;;;;;;;7.20;3.25;;;;;;;8.89;91.31;97821.19;2608729;28;20052;-80
2023/05/10 02:18:15;;;;;;;4.88;3.45;;;;;;;8.92;90.14;97828.91;2610141;28;20048;-80
2023/05/10 02:19:33;;;;;;;6.88;3.47;;;;;;;8.94;90.84;97824.47;2608416;28;20135;-80
2023/05/10 02:20:52;;;;;;;4.63;3.33;;;;;;;8.83;90.51;97819.59;2609894;28;20048;-80
2023/05/10 02:22:09;;;;;;;5.72;3.40;;;;;;;8.90;89.69;97826.34;2609920;28;20549;-80
2023/05/10 02:23:26;;;;;;;5.97;3.53;;;;;;;8.88;89.71;97824.69;2609657;28;20190;-80
2023/05/10 02:24:43;;;;;;;8.27;3.40;;;;;;;8.87;90.04;97828.19;2609270;28;20914;-80
2023/05/10 02:26:01;;;;;;;6.05;3.08;;;;;;;8.77;90.93;97825.00;2609743;28;20469;-80
2023/05/10 02:27:19;;;;;;;5.45;3.35;;;;;;;8.85;90.14;97823.03;2609345;28;20039;-80
2023/05/10 02:28:37;;;;;;;4.80;3.65;;;;;;;8.85;89.77;97827.38;2609401;28;20051;-80
2023/05/10 02:29:54;;;;;;;4.93;2.92;;;;;;;8.50;92.88;97824.94;2609474;28;20060;-80
2023/05/10 02:31:10;;;;;;;4.75;3.30;;;;;;;8.55;94.67;97825.66;2609303;28;20136;-79
2023/05/10 02:32:27;;;;;;;5.10;2.75;;;;;;;8.14;98.84;97814.66;2609173;28;20056;-80
2023/05/10 02:33:44;;;;;;;5.10;3.50;;;;;;;8.50;96.63;97817.09;2609465;28;20055;-82
2023/05/10 02:35:02;;;;;;;4.22;3.10;;;;;;;8.13;98.29;97820.75;2608594;28;20538;-82
2023/05/10 02:36:21;;;;;;;4.07;2.83;;;;;;;7.83;100.00;97813.72;2609411;28;20064;-81
2023/05/10 02:37:38;;;;;;;5.70;3.20;;;;;;;8.01;100.00;97811.50;2609239;28;20409;-81
2023/05/10 02:38:54;;;;;;;5.03;3.17;;;;;;;8.07;100.00;97808.75;2609834;28;20136;-81
2023/05/10 02:40:11;;;;;;;3.83;2.65;;;;;;;8.03;100.00;97805.38;2609786;28;20571;-82
2023/05/10 02:41:27;;;;;;;5.45;3.28;;;;;;;8.14;100.00;97806.81;2609066;28;20060;-81
2023/05/10 02:42:47;;;;;;;4.65;3.05;;;;;;;8.22;98.99;97806.59;2608975;28;20068;-82
2023/05/10 02:44:06;;;;;;;4.32;3.40;;;;;;;8.20;99.21;97806.63;2609464;28;20044;-81
2023/05/10 02:45:28;;;;;;;4.97;3.45;;;;;;;8.50;95.57;97801.44;2609818;28;20484;-82
2023/05/10 02:46:45;;;;;;;8.25;3.75;;;;;;;8.36;97.80;97806.19;2609229;28;20049;-82
2023/05/10 02:48:01;;;;;;;4.35;3.00;;;;;;;8.26;99.40;97800.41;2609981;28;20041;-82
2023/05/10 02:49:16;;;;;;;4.65;3.78;;;;;;;8.03;100.00;97801.88;2609303;28;20049;-81
2023/05/10 02:50:33;;;;;;;4.25;3.15;;;;;;;8.10;100.00;97805.19;2609813;28;20068;-81
2023/05/10 02:51:55;;;;;;;5.93;3.40;;;;;;;8.61;95.87;97809.81;2609487;28;20408;-82
2023/05/10 02:53:17;;;;;;;6.00;3.70;;;;;;;8.70;94.30;97810.44;2609468;28;20132;-82
2023/05/10 02:54:39;;;;;;;4.97;3.53;;;;;;;8.73;93.82;97820.78;2610022;28;20535;-82
2023/05/10 02:56:00;;;;;;;4.93;3.25;;;;;;;8.29;96.56;97824.63;2609763;28;20144;-82
2023/05/10 02:57:19;;;;;;;5.63;3.05;;;;;;;8.38;96.95;97826.13;2609435;28;20048;-82
2023/05/10 02:58:35;;;;;;;4.40;3.28;;;;;;;8.48;94.85;97829.31;2609449;28;20472;-82
2023/05/10 02:59:51;;;;;;;4.82;3.25;;;;;;;8.49;95.61;97831.00;2608655;28;20128;-80
2023/05/10 03:01:07;;;;;;;4.38;3.20;;;;;;;8.50;95.81;97837.97;2608706;28;20397;-82
2023/05/10 03:02:23;;;;;;;5.20;3.17;;;;;;;8.32;96.53;97842.81;2608946;28;20140;-84
2023/05/10 03:03:38;;;;;;;4.75;3.33;;;;;;;8.30;96.92;97843.72;2609431;28;20476;-82
2023/05/10 03:04:54;;;;;;;6.15;3.53;;;;;;;8.23;98.28;97847.44;2609364;28;20107;-80
2023/05/10 03:06:10;;;;;;;5.40;3.55;;;;;;;8.08;100.00;97853.91;2609889;28;20485;-82
2023/05/10 03:07:25;;;;;;;5.47;3.30;;;;;;;8.11;100.00;97851.25;2609550;28;20076;-82
2023/05/10 03:08:41;;;;;;;4.35;3.35;;;;;;;7.90;100.00;97846.56;2609494;28;20496;-82
2023/05/10 03:09:57;;;;;;;6.80;3.20;;;;;;;7.81;100.00;97852.00;2609368;28;20045;-82
2023/05/10 03:11:36;;;;;;;5.50;3.28;;;;;;;7.77;100.00;97845.19;2609524;28;20103;-82
2023/05/10 03:13:37;;;;;;;5.38;3.33;;;;;;;7.99;100.00;97842.84;2608258;28;20049;-81
2023/05/10 03:15:17;;;;;;;5.90;3.25;;;;;;;7.77;100.00;97835.59;2606212;28;20095;-83
2023/05/10 03:16:42;;;;;;;4.78;3.35;;;;;;;8.02;100.00;97845.38;2606223;28;20068;-81
2023/05/10 03:18:10;;;;;;;6.00;2.90;;;;;;;7.68;100.00;97835.81;2607243;28;20493;-81
2023/05/10 03:19:47;;;;;;;6.68;3.70;;;;;;;8.21;99.88;97842.25;2607946;28;20578;-81
2023/05/10 03:21:07;;;;;;;5.05;3.47;;;;;;;8.34;98.20;97845.38;2607264;28;20056;-82
2023/05/10 03:22:34;;;;;;;6.18;3.53;;;;;;;8.10;99.32;97850.38;2607198;28;20049;-82
2023/05/10 03:24:11;;;;;;;6.05;3.20;;;;;;;7.65;100.00;97848.09;2607318;28;20077;-81
2023/05/10 03:25:29;;;;;;;5.68;3.42;;;;;;;7.52;100.00;97847.53;2608642;28;20052;-82
2023/05/10 03:26:45;;;;;;;5.40;3.75;;;;;;;7.79;100.00;97840.78;2609285;28;20052;-82
2023/05/10 03:28:02;;;;;;;5.00;3.38;;;;;;;7.62;100.00;97838.59;2608996;28;20107;-82
2023/05/10 03:29:20;;;;;;;4.68;3.25;;;;;;;7.46;100.00;97838.13;2609241;28;20407;-82
2023/05/10 03:30:36;;;;;;;4.88;3.10;;;;;;;7.62;100.00;97842.09;2608835;28;20514;-82
2023/05/10 03:31:52;;;;;;;5.53;3.70;;;;;;;7.54;100.00;97838.81;2609338;28;20076;-82
2023/05/10 03:33:08;;;;;;;4.93;3.70;;;;;;;7.51;100.00;97838.03;2609081;28;20056;-80
2023/05/10 03:34:24;;;;;;;4.32;3.13;;;;;;;7.40;100.00;97846.94;2608868;28;20087;-82
2023/05/10 03:35:40;;;;;;;5.22;3.80;;;;;;;7.55;100.00;97843.13;2608287;28;20080;-83
2023/05/10 03:36:56;;;;;;;4.80;3.17;;;;;;;7.33;100.00;97854.09;2608641;28;20041;-82
2023/05/10 03:38:12;;;;;;;5.00;3.60;;;;;;;7.44;100.00;97840.78;2608215;28;20448;-82
2023/05/10 03:39:28;;;;;;;6.10;4.15;;;;;;;7.51;100.00;97844.09;2609335;28;20087;-82
2023/05/10 03:40:43;;;;;;;5.05;3.80;;;;;;;7.41;100.00;97846.09;2608075;28;20037;-82
2023/05/10 03:41:59;;;;;;;7.70;3.72;;;;;;;7.47;100.00;97840.72;2608622;28;20052;-82
2023/05/10 03:43:14;;;;;;;4.95;3.28;;;;;;;7.44;100.00;97850.34;2608896;28;20061;-82
2023/05/10 03:44:30;;;;;;;7.00;3.78;;;;;;;7.44;100.00;97843.41;2609065;28;20044;-81
2023/05/10 03:45:46;;;;;;;5.93;3.67;;;;;;;7.36;100.00;97842.72;2608755;28;20056;-82
2023/05/10 03:47:02;;;;;;;8.18;3.83;;;;;;;7.35;100.00;97846.22;2609063;28;20067;-82
2023/05/10 03:48:17;;;;;;;5.85;3.67;;;;;;;7.37;100.00;97849.63;2608313;28;20053;-82
2023/05/10 03:49:33;;;;;;;5.43;3.53;;;;;;;7.20;100.00;97840.50;2609252;28;20495;-82
2023/05/10 03:50:52;;;;;;;5.25;3.55;;;;;;;7.31;100.00;97844.59;2608588;28;20515;-82
2023/05/10 03:52:07;;;;;;;4.38;3.33;;;;;;;7.43;100.00;97840.81;2609156;28;20582;-82
2023/05/10 03:53:23;;;;;;;5.78;3.22;;;;;;;7.44;100.00;97839.91;2609091;28;20056;-82
2023/05/10 03:54:38;;;;;;;4.88;3.30;;;;;;;7.54;100.00;97845.75;2608640;28;20425;-82
2023/05/10 03:55:54;;;;;;;6.03;3.35;;;;;;;7.64;100.00;97849.84;2608884;28;20057;-82
2023/05/10 03:57:09;;;;;;;6.20;3.38;;;;;;;7.78;100.00;97839.91;2609090;28;20080;-82
2023/05/10 03:58:25;;;;;;;4.90;3.80;;;;;;;7.73;100.00;97836.59;2608989;28;20048;-82
2023/05/10 03:59:41;;;;;;;5.10;3.20;;;;;;;7.72;100.00;97831.41;2609251;28;20495;-82
2023/05/10 04:00:56;;;;;;;6.45;3.38;;;;;;;7.60;100.00;97833.44;2608085;28;20055;-80
2023/05/10 04:02:12;;;;;;;7.60;3.80;;;;;;;7.63;100.00;97838.59;2608823;28;20077;-82
2023/05/10 04:03:27;;;;;;;4.78;3.20;;;;;;;7.61;100.00;97832.56;2608633;28;20049;-82
2023/05/10 04:04:43;;;;;;;5.40;3.63;;;;;;;7.14;100.00;97843.25;2608714;28;20486;-82
2023/05/10 04:06:00;;;;;;;7.38;3.83;;;;;;;7.24;100.00;97837.81;2608550;28;20052;-82
2023/05/10 04:07:16;;;;;;;4.78;3.65;;;;;;;7.49;100.00;97838.91;2608206;28;20052;-82
2023/05/10 04:08:31;;;;;;;4.53;3.42;;;;;;;7.54;100.00;97843.16;2608406;28;20049;-82
2023/05/10 04:09:47;;;;;;;5.57;3.70;;;;;;;7.54;100.00;97843.16;2608236;28;20427;-82
2023/05/10 04:11:11;;;;;;;5.63;3.58;;;;;;;7.62;100.00;97843.81;2606837;28;20045;-82
2023/05/10 04:12:27;;;;;;;5.57;3.33;;;;;;;7.68;100.00;97842.81;2608611;28;20063;-82
2023/05/10 04:13:43;;;;;;;5.68;3.33;;;;;;;7.40;100.00;97846.13;2608517;28;20497;-82
2023/05/10 04:14:58;;;;;;;4.63;3.20;;;;;;;7.53;100.00;97841.44;2608669;28;20372;-82
2023/05/10 04:16:13;;;;;;;6.75;4.25;;;;;;;7.56;100.00;97836.19;2608787;28;20449;-82
2023/05/10 04:17:29;;;;;;;6.10;3.40;;;;;;;7.62;100.00;97834.25;2608989;28;20064;-82
2023/05/10 04:18:45;;;;;;;5.53;3.33;;;;;;;7.60;100.00;97841.25;2608671;28;21062;-82
2023/05/10 04:20:00;;;;;;;7.40;3.60;;;;;;;7.66;100.00;97840.22;2608752;28;20072;-84
2023/05/10 04:21:16;;;;;;;5.47;3.78;;;;;;;7.58;100.00;97840.44;2608177;28;20075;-82
2023/05/10 04:22:32;;;;;;;5.32;3.72;;;;;;;7.33;100.00;97838.47;2608545;28;20048;-84
2023/05/10 04:23:47;;;;;;;7.30;3.83;;;;;;;7.53;100.00;97841.44;2609117;28;20110;-83
2023/05/10 04:25:04;;;;;;;8.57;3.75;;;;;;;7.54;100.00;97838.81;2607776;28;20161;-84
2023/05/10 04:26:20;;;;;;;7.97;4.00;;;;;;;7.53;100.00;97841.44;2608453;28;20048;-84
2023/05/10 04:27:36;;;;;;;6.05;4.22;;;;;;;7.53;100.00;97844.03;2608560;28;20445;-83
2023/05/10 04:28:51;;;;;;;5.15;3.70;;;;;;;7.43;100.00;97841.69;2608434;28;20155;-83
2023/05/10 04:30:07;;;;;;;4.53;3.10;;;;;;;7.62;100.00;97847.28;2607540;28;20041;-83
2023/05/10 04:31:23;;;;;;;5.60;3.70;;;;;;;7.51;100.00;97841.50;2608247;28;20052;-84
2023/05/10 04:32:38;;;;;;;6.88;3.63;;;;;;;7.51;100.00;97840.63;2608542;28;20060;-84
2023/05/10 04:33:54;;;;;;;7.30;4.20;;;;;;;7.66;100.00;97835.00;2607292;28;20107;-84
2023/05/10 04:35:10;;;;;;;7.65;3.90;;;;;;;7.81;100.00;97846.81;2608220;28;20098;-84
2023/05/10 04:36:26;;;;;;;6.05;3.90;;;;;;;7.81;100.00;97843.31;2606663;28;20049;-84
2023/05/10 04:37:41;;;;;;;5.75;3.53;;;;;;;7.84;100.00;97846.72;2608688;28;20102;-83
2023/05/10 04:38:57;;;;;;;5.55;3.53;;;;;;;7.58;100.00;97842.19;2608372;28;20040;-84
2023/05/10 04:40:12;;;;;;;7.45;4.40;;;;;;;7.71;100.00;97842.72;2608392;28;20068;-83
2023/05/10 04:41:28;;;;;;;6.93;3.90;;;;;;;7.64;100.00;97836.81;2607377;28;20048;-83
2023/05/10 04:42:44;;;;;;;5.28;3.45;;;;;;;7.90;100.00;97841.34;2607789;28;20408;-83
2023/05/10 04:43:59;;;;;;;5.72;3.65;;;;;;;8.00;100.00;97841.09;2607499;28;20141;-82
2023/05/10 04:45:15;;;;;;;8.10;4.40;;;;;;;8.03;100.00;97843.59;2607105;28;20040;-83
2023/05/10 04:46:30;;;;;;;4.43;3.15;;;;;;;8.09;100.00;97850.41;2599037;28;20504;-82
2023/05/10 04:47:46;;;;;;;4.40;3.38;;;;;;;7.78;100.00;97847.72;2607076;28;20076;-84
2023/05/10 04:49:02;;;;;;;7.28;3.65;;;;;;;7.49;100.00;97845.91;2607594;28;20052;-85
2023/05/10 04:50:17;;;;;;;5.70;3.50;;;;;;;7.80;100.00;97852.03;2608611;28;20045;-84
2023/05/10 04:51:33;;;;;;;5.63;3.30;;;;;;;7.86;100.00;97854.50;2608348;28;20067;-83
2023/05/10 04:52:48;;;;;;;5.18;3.47;;;;;;;7.41;100.00;97853.91;2608755;28;20045;-84
2023/05/10 04:54:04;;;;;;;5.50;3.30;;;;;;;7.40;100.00;97856.53;2608702;28;20041;-84
2023/05/10 04:55:20;;;;;;;7.82;3.97;;;;;;;7.89;100.00;97857.88;2606426;28;20044;-83
2023/05/10 04:56:35;;;;;;;4.60;2.90;;;;;;;7.75;100.00;97854.75;2607736;28;20052;-83
2023/05/10 04:57:51;;;;;;;5.43;3.75;;;;;;;8.07;100.00;97855.69;2608227;28;20045;-83
2023/05/10 04:59:07;;;;;;;6.30;3.80;;;;;;;8.32;100.00;97852.41;2608612;28;20052;-84
2023/05/10 05:00:23;;;;;;;5.72;4.05;;;;;;;8.32;100.00;97849.78;2608738;28;20056;-84
2023/05/10 05:01:39;;;;;;;5.70;3.60;;;;;;;8.15;100.00;97858.06;2608247;28;20080;-84
2023/05/10 05:02:55;;;;;;;5.28;3.53;;;;;;;7.80;100.00;97862.47;2608298;28;20523;-83
2023/05/10 05:04:10;;;;;;;8.40;3.90;;;;;;;7.58;100.00;97866.47;2608631;28;20075;-84
2023/05/10 05:05:26;;;;;;;6.13;3.85;;;;;;;7.81;100.00;97867.66;2607720;28;20059;-85
2023/05/10 05:06:42;;;;;;;6.00;4.40;;;;;;;7.90;100.00;97859.59;2606893;28;20523;-83
2023/05/10 05:07:57;;;;;;;5.45;3.95;;;;;;;7.84;100.00;97858.91;2608630;28;20049;-83
2023/05/10 05:09:12;;;;;;;5.45;3.72;;;;;;;8.02;100.00;97855.81;2608091;28;20045;-84
2023/05/10 05:10:28;;;;;;;8.77;4.05;;;;;;;8.10;100.00;97860.81;2607752;28;20856;-84
2023/05/10 05:11:44;;;;;;;8.77;4.25;;;;;;;8.38;100.00;97856.56;2608868;28;20053;-84
2023/05/10 05:12:59;;;;;;;7.55;4.32;;;;;;;8.66;100.00;97858.38;2608048;28;20059;-84
2023/05/10 05:14:15;;;;;;;7.05;4.22;;;;;;;8.85;100.00;97854.34;2608911;28;20057;-84
2023/05/10 05:15:30;;;;;;;6.40;4.10;;;;;;;8.49;100.00;97851.88;2608231;28;20086;-84
2023/05/10 05:16:46;;;;;;;6.00;3.70;;;;;;;8.61;100.00;97861.16;2608404;28;20040;-84
2023/05/10 05:18:02;;;;;;;6.03;3.47;;;;;;;8.46;100.00;97855.47;2608767;28;20061;-84
2023/05/10 05:19:17;;;;;;;5.00;3.33;;;;;;;8.30;100.00;97859.38;2608275;28;20059;-84
2023/05/10 05:20:34;;;;;;;6.10;3.80;;;;;;;8.46;100.00;97855.47;2608037;28;20045;-84
2023/05/10 05:21:50;;;;;;;8.32;4.00;;;;;;;8.61;100.00;97855.94;2608524;28;20048;-85
2023/05/10 05:23:05;;;;;;;4.93;3.45;;;;;;;8.92;100.00;97852.41;2608108;28;20418;-84
2023/05/10 05:24:21;;;;;;;6.00;3.65;;;;;;;8.93;100.00;97850.63;2608520;28;20060;-84
2023/05/10 05:25:36;;;;;;;8.15;4.32;;;;;;;9.25;100.00;97859.22;2608134;28;20454;-84
2023/05/10 05:26:52;;;;;;;5.13;3.90;;;;;;;9.13;100.00;97855.22;2608833;28;20057;-84
2023/05/10 05:28:07;;;;;;;6.78;3.80;;;;;;;9.19;100.00;97850.66;2608388;28;20102;-84
2023/05/10 05:29:23;;;;;;;5.97;3.95;;;;;;;9.65;100.00;97849.22;2608460;28;20056;-85
2023/05/10 05:30:39;;;;;;;5.65;3.83;;;;;;;9.72;100.00;97848.13;2608567;28;20049;-84
2023/05/10 05:31:54;;;;;;;4.90;3.20;;;;;;;9.79;100.00;97851.38;2607992;28;20064;-84
2023/05/10 05:33:10;;;;;;;5.57;3.45;;;;;;;9.46;100.00;97855.91;2609252;28;20049;-84
2023/05/10 05:34:26;;;;;;;5.32;3.60;;;;;;;9.43;100.00;97850.78;2607556;28;20057;-83
2023/05/10 05:35:47;;;;;;;4.78;3.42;;;;;;;9.62;100.00;97847.53;2608238;28;20179;-84
2023/05/10 05:37:03;;;;;;;6.15;3.63;;;;;;;9.65;100.00;97849.22;2606824;28;20068;-84
2023/05/10 05:38:18;;;;;;;5.20;3.33;;;;;;;10.06;100.00;97844.31;2608023;28;20518;-84
2023/05/10 05:39:35;;;;;;;7.85;3.85;;;;;;;10.26;100.00;97851.44;2607242;28;20041;-84
2023/05/10 05:40:51;;;;;;;4.53;3.35;;;;;;;9.93;100.00;97843.91;2608444;28;20394;-84
2023/05/10 05:42:07;;;;;;;6.03;3.88;;;;;;;9.85;100.00;97846.78;2607716;28;20056;-84
2023/05/10 05:43:22;;;;;;;4.97;3.42;;;;;;;9.91;100.00;97839.63;2607114;28;20048;-84
2023/05/10 05:44:38;;;;;;;5.25;3.55;;;;;;;10.45;100.00;97843.81;2606600;28;20832;-84
2023/05/10 05:45:54;;;;;;;4.45;3.30;;;;;;;10.70;100.00;97834.16;2607449;28;20386;-84
2023/05/10 05:47:10;;;;;;;4.38;3.30;;;;;;;10.92;100.00;97841.22;2606663;28;20041;-83
2023/05/10 05:48:26;;;;;;;5.65;3.42;;;;;;;11.13;100.00;97840.34;2608196;28;20045;-84
2023/05/10 05:49:41;;;;;;;4.85;3.42;;;;;;;11.04;100.00;97835.50;2607581;28;20535;-84
2023/05/10 05:50:57;;;;;;;5.82;3.40;;;;;;;11.34;98.23;97837.78;2607603;28;20053;-84
2023/05/10 05:52:13;;;;;;;6.30;3.42;;;;;;;11.36;98.89;97835.94;2607841;28;20487;-84
2023/05/10 05:53:29;;;;;;;5.68;3.35;;;;;;;11.71;96.58;97836.22;2607789;28;20060;-84
2023/05/10 05:54:44;;;;;;;6.43;3.42;;;;;;;11.90;94.87;97832.84;2608373;28;20520;-84
2023/05/10 05:55:59;;;;;;;9.70;3.53;;;;;;;12.04;94.59;97834.88;2610182;28;20053;-84
2023/05/10 05:57:15;;;;;;;4.75;2.88;;;;;;;12.22;90.34;97842.84;2608209;28;20081;-84
2023/05/10 05:58:31;;;;;;;6.65;3.33;;;;;;;12.31;87.14;97842.44;2609923;28;20049;-84
2023/05/10 05:59:46;;;;;;;4.97;2.70;;;;;;;12.42;85.91;97839.34;2610461;28;20048;-84
2023/05/10 06:01:02;;;;;;;6.55;3.10;;;;;;;12.69;85.51;97846.88;2609760;28;20132;-85
2023/05/10 06:02:18;;;;;;;5.40;2.72;;;;;;;12.89;80.54;97847.75;2609570;28;20053;-85
2023/05/10 06:03:33;;;;;;;3.22;2.42;;;;;;;12.95;74.72;97842.19;2609299;28;20068;-84
2023/05/10 06:04:49;;;;;;;5.38;2.40;;;;;;;13.18;70.24;97838.44;2610006;28;20506;-84
2023/05/10 06:06:05;;;;;;;3.70;2.50;;;;;;;13.10;77.37;97835.34;2609273;28;20053;-84
2023/05/10 06:07:20;;;;;;;4.40;2.88;;;;;;;13.24;73.78;97842.56;2610047;28;20202;-85
2023/05/10 06:08:36;;;;;;;8.90;4.20;;;;;;;13.48;72.56;97844.94;2609844;28;20048;-84